createdAt,value
2019-06-27T00:02:15.894Z,13.30
2019-06-27T00:04:54.403Z,9.53
2019-06-27T00:07:33.067Z,7.50
2019-06-27T00:10:08.353Z,7.70
2019-06-27T00:12:45.773Z,13.50
2019-06-27T00:15:28.614Z,9.57
2019-06-27T00:18:07.982Z,13.47
2019-06-27T00:21:01.586Z,13.80
2019-06-27T00:23:37.358Z,9.10
2019-06-27T00:26:08.610Z,13.93
2019-06-27T00:28:39.919Z,9.43
2019-06-27T00:31:11.268Z,16.57
2019-06-27T00:33:42.529Z,9.93
2019-06-27T00:36:14.007Z,10.67
2019-06-27T00:38:45.279Z,11.13
2019-06-27T00:41:16.466Z,9.83
2019-06-27T00:43:47.770Z,13.90
2019-06-27T00:46:19.070Z,14.13
2019-06-27T00:48:50.261Z,11.20
2019-06-27T00:51:21.421Z,12.53
2019-06-27T00:53:52.720Z,11.10
2019-06-27T00:56:24.010Z,7.30
2019-06-27T00:58:55.311Z,12.77
2019-06-27T01:01:26.608Z,12.73
2019-06-27T01:03:57.869Z,11.00
2019-06-27T01:06:29.168Z,10.60
2019-06-27T01:09:02.750Z,10.60
2019-06-27T01:11:34.071Z,10.00
2019-06-27T01:14:07.360Z,17.60
2019-06-27T01:16:38.699Z,11.50
2019-06-27T01:19:10.076Z,13.30
2019-06-27T01:21:41.441Z,19.03
2019-06-27T01:24:12.750Z,16.20
2019-06-27T01:26:44.034Z,12.97
2019-06-27T01:29:15.290Z,12.30
2019-06-27T01:31:46.705Z,14.17
2019-06-27T01:34:18.012Z,17.40
2019-06-27T01:36:49.356Z,12.50
2019-06-27T01:39:20.594Z,19.20
2019-06-27T01:41:51.843Z,18.10
2019-06-27T01:44:44.493Z,20.40
2019-06-27T01:47:15.715Z,15.27
2019-06-27T01:49:47.011Z,19.60
2019-06-27T01:52:18.309Z,17.13
2019-06-27T01:54:49.645Z,23.83
2019-06-27T01:57:20.868Z,24.50
2019-06-27T01:59:52.186Z,22.90
2019-06-27T02:02:23.425Z,21.47
2019-06-27T02:04:54.728Z,20.87
2019-06-27T02:07:25.978Z,16.60
2019-06-27T02:09:57.241Z,18.77
2019-06-27T02:12:28.532Z,17.77
2019-06-27T02:14:59.977Z,17.53
2019-06-27T02:17:31.301Z,17.73
2019-06-27T02:20:02.598Z,19.83
2019-06-27T02:22:33.979Z,24.00
2019-06-27T02:25:06.116Z,22.97
2019-06-27T02:27:37.474Z,26.13
2019-06-27T02:30:09.354Z,19.73
2019-06-27T02:32:40.647Z,19.87
2019-06-27T02:35:12.313Z,16.60
2019-06-27T02:37:43.621Z,20.23
2019-06-27T02:40:15.057Z,18.23
2019-06-27T02:42:46.349Z,16.37
2019-06-27T02:45:17.827Z,14.80
2019-06-27T02:47:49.072Z,18.87
2019-06-27T02:50:20.415Z,13.27
2019-06-27T02:52:51.703Z,11.30
2019-06-27T02:55:22.943Z,18.10
2019-06-27T02:57:54.337Z,21.73
2019-06-27T03:00:25.900Z,21.20
2019-06-27T03:02:57.305Z,18.80
2019-06-27T03:05:28.541Z,22.47
2019-06-27T03:07:59.943Z,17.00
2019-06-27T03:10:31.247Z,16.87
2019-06-27T03:13:02.517Z,18.37
2019-06-27T03:15:33.805Z,24.43
2019-06-27T03:18:05.151Z,20.87
2019-06-27T03:20:36.475Z,18.37
2019-06-27T03:23:07.766Z,16.00
2019-06-27T03:25:38.980Z,12.33
2019-06-27T03:28:10.263Z,13.20
2019-06-27T03:30:41.559Z,13.33
2019-06-27T03:33:12.933Z,16.10
2019-06-27T03:35:44.090Z,18.70
2019-06-27T03:38:15.406Z,17.80
2019-06-27T03:40:46.584Z,15.13
2019-06-27T03:43:17.859Z,14.40
2019-06-27T03:45:49.209Z,21.20
2019-06-27T03:48:20.505Z,15.13
2019-06-27T03:50:55.905Z,16.93
2019-06-27T03:53:24.712Z,14.60
2019-06-27T03:55:56.106Z,17.53
2019-06-27T03:58:27.439Z,18.90
2019-06-27T04:00:58.768Z,13.60
2019-06-27T04:03:30.088Z,14.03
2019-06-27T04:06:01.462Z,18.23
2019-06-27T04:08:32.823Z,15.83
2019-06-27T04:11:04.218Z,16.83
2019-06-27T04:13:35.487Z,15.20
2019-06-27T04:16:06.732Z,18.83
2019-06-27T04:18:38.029Z,20.13
2019-06-27T04:21:09.310Z,13.73
2019-06-27T04:23:40.605Z,15.80
2019-06-27T04:26:11.929Z,16.70
2019-06-27T04:28:43.218Z,17.53
2019-06-27T04:31:14.490Z,20.00
2019-06-27T04:33:45.758Z,19.60
2019-06-27T04:36:17.040Z,18.30
2019-06-27T04:38:51.409Z,11.90
2019-06-27T04:41:22.728Z,18.77
2019-06-27T04:43:54.073Z,13.60
2019-06-27T04:46:25.370Z,18.90
2019-06-27T04:48:56.643Z,18.40
2019-06-27T04:51:28.203Z,14.20
2019-06-27T04:53:59.537Z,10.93
2019-06-27T04:56:30.789Z,11.00
2019-06-27T04:59:02.149Z,12.77
2019-06-27T05:01:33.398Z,15.63
2019-06-27T05:04:04.846Z,11.83
2019-06-27T05:06:36.273Z,15.53
2019-06-27T05:09:22.481Z,16.07
2019-06-27T05:11:53.777Z,12.77
2019-06-27T05:14:27.402Z,10.90
2019-06-27T05:16:58.704Z,10.97
2019-06-27T05:19:29.959Z,15.80
2019-06-27T05:22:01.346Z,12.70
2019-06-27T05:24:32.627Z,13.27
2019-06-27T05:27:04.096Z,17.60
2019-06-27T05:29:35.464Z,12.47
2019-06-27T05:32:06.863Z,15.90
2019-06-27T05:34:38.200Z,15.80
2019-06-27T05:37:09.333Z,11.23
2019-06-27T05:39:40.540Z,12.40
2019-06-27T05:42:11.958Z,14.90
2019-06-27T05:44:43.317Z,15.20
2019-06-27T05:47:14.898Z,14.23
2019-06-27T05:49:46.454Z,12.27
2019-06-27T05:52:18.071Z,16.70
2019-06-27T05:54:49.658Z,13.60
2019-06-27T05:57:21.337Z,14.83
2019-06-27T05:59:52.641Z,10.60
2019-06-27T06:02:23.940Z,13.20
2019-06-27T06:04:55.269Z,9.00
2019-06-27T06:07:26.511Z,10.00
2019-06-27T06:09:57.765Z,9.23
2019-06-27T06:12:29.130Z,10.13
2019-06-27T06:15:00.464Z,9.33
2019-06-27T06:17:31.802Z,10.80
2019-06-27T06:20:03.186Z,10.67
2019-06-27T06:22:34.524Z,7.13
2019-06-27T06:25:05.905Z,8.37
2019-06-27T06:27:37.331Z,9.60
2019-06-27T06:30:09.540Z,6.93
2019-06-27T06:32:40.842Z,9.07
2019-06-27T06:35:12.365Z,9.83
2019-06-27T06:37:43.680Z,10.07
2019-06-27T06:40:16.472Z,7.13
2019-06-27T06:42:49.601Z,7.40
2019-06-27T06:45:20.928Z,9.93
2019-06-27T06:47:52.374Z,15.33
2019-06-27T06:50:23.701Z,6.33
2019-06-27T06:52:55.585Z,7.97
2019-06-27T06:55:26.872Z,10.13
2019-06-27T06:57:58.115Z,8.67
2019-06-27T07:00:29.633Z,7.13
2019-06-27T07:03:00.836Z,9.47
2019-06-27T07:05:32.106Z,8.17
2019-06-27T07:08:03.353Z,8.57
2019-06-27T07:10:34.565Z,7.97
2019-06-27T07:13:05.900Z,11.37
2019-06-27T07:15:37.168Z,11.90
2019-06-27T07:18:08.495Z,7.27
2019-06-27T07:20:39.775Z,9.10
2019-06-27T07:23:11.073Z,9.40
2019-06-27T07:25:42.355Z,7.27
2019-06-27T07:28:13.603Z,7.80
2019-06-27T07:30:44.956Z,7.13
2019-06-27T07:33:16.179Z,13.17
2019-06-27T07:35:47.397Z,7.40
2019-06-27T07:38:18.768Z,10.27
2019-06-27T07:40:50.022Z,8.47
2019-06-27T07:43:21.181Z,10.23
2019-06-27T07:45:52.331Z,8.47
2019-06-27T07:48:23.981Z,10.13
2019-06-27T07:50:55.266Z,10.80
2019-06-27T07:53:26.541Z,8.77
2019-06-27T07:55:57.766Z,8.53
2019-06-27T07:58:28.967Z,6.17
2019-06-27T08:01:00.333Z,8.10
2019-06-27T08:03:31.670Z,11.83
2019-06-27T08:06:03.005Z,9.87
2019-06-27T08:08:34.328Z,8.93
2019-06-27T08:11:05.808Z,12.20
2019-06-27T08:13:37.019Z,9.07
2019-06-27T08:16:08.304Z,9.43
2019-06-27T08:18:39.725Z,7.20
2019-06-27T08:21:11.120Z,9.87
2019-06-27T08:23:42.593Z,11.03
2019-06-27T08:26:13.968Z,6.17
2019-06-27T08:28:45.309Z,10.53
2019-06-27T08:31:16.584Z,7.60
2019-06-27T08:33:47.880Z,7.47
2019-06-27T08:36:19.212Z,7.07
2019-06-27T08:38:50.518Z,7.60
2019-06-27T08:41:21.688Z,9.43
2019-06-27T08:43:53.286Z,8.30
2019-06-27T08:46:24.598Z,11.40
2019-06-27T08:48:59.018Z,11.50
2019-06-27T08:51:30.362Z,8.93
2019-06-27T08:54:01.661Z,8.97
2019-06-27T08:56:32.963Z,9.67
2019-06-27T08:59:04.364Z,8.23
2019-06-27T09:01:35.733Z,10.53
2019-06-27T09:04:06.939Z,8.00
2019-06-27T09:06:38.392Z,9.50
2019-06-27T09:09:09.682Z,10.47
2019-06-27T09:11:40.991Z,9.40
2019-06-27T09:14:12.407Z,11.03
2019-06-27T09:16:46.572Z,7.77
2019-06-27T09:19:16.489Z,8.53
2019-06-27T09:21:47.734Z,11.43
2019-06-27T09:24:19.041Z,9.23
2019-06-27T09:26:50.316Z,10.53
2019-06-27T09:29:21.643Z,9.63
2019-06-27T09:31:52.991Z,7.60
2019-06-27T09:34:24.325Z,10.00
2019-06-27T09:36:55.656Z,11.63
2019-06-27T09:39:27.180Z,9.83
2019-06-27T09:41:58.544Z,9.70
2019-06-27T09:44:29.944Z,7.03
2019-06-27T09:47:03.310Z,8.77
2019-06-27T09:49:34.599Z,6.90
2019-06-27T09:52:05.884Z,11.93
2019-06-27T09:54:37.219Z,9.00
2019-06-27T09:57:08.477Z,9.13
2019-06-27T09:59:39.991Z,10.27
2019-06-27T10:02:11.282Z,9.93
2019-06-27T10:04:42.542Z,10.23
2019-06-27T10:07:13.812Z,10.73
2019-06-27T10:09:45.226Z,12.30
2019-06-27T10:12:21.025Z,7.60
2019-06-27T10:14:55.282Z,8.70
2019-06-27T10:17:26.554Z,9.43
2019-06-27T10:19:58.086Z,7.70
2019-06-27T10:22:29.644Z,5.73
2019-06-27T10:25:00.833Z,9.30
2019-06-27T10:27:32.366Z,8.77
2019-06-27T10:30:06.998Z,8.03
2019-06-27T10:32:38.858Z,8.10
2019-06-27T10:35:11.138Z,7.40
2019-06-27T10:37:42.614Z,9.87
2019-06-27T10:40:15.448Z,6.53
2019-06-27T10:43:05.733Z,6.03
2019-06-27T10:45:38.113Z,7.00
2019-06-27T10:48:09.528Z,12.43
2019-06-27T10:50:40.966Z,4.97
2019-06-27T10:53:12.218Z,9.10
2019-06-27T10:55:46.286Z,6.83
2019-06-27T10:58:17.677Z,10.20
2019-06-27T11:00:48.986Z,8.40
2019-06-27T11:03:20.296Z,7.00
2019-06-27T11:05:51.679Z,5.63
2019-06-27T11:08:22.921Z,4.50
2019-06-27T11:10:54.237Z,10.37
2019-06-27T11:13:25.539Z,9.50
2019-06-27T11:15:56.852Z,6.33
2019-06-27T11:18:28.141Z,7.10
2019-06-27T11:20:59.353Z,8.73
2019-06-27T11:23:30.662Z,8.00
2019-06-27T11:26:01.933Z,7.30
2019-06-27T11:28:33.113Z,8.60
2019-06-27T11:31:05.929Z,8.23
2019-06-27T11:33:37.087Z,9.53
2019-06-27T11:36:08.819Z,8.73
2019-06-27T11:38:40.042Z,5.47
2019-06-27T11:41:11.496Z,8.90
2019-06-27T11:43:45.333Z,9.53
2019-06-27T11:46:16.543Z,6.60
2019-06-27T11:48:47.778Z,6.27
2019-06-27T11:51:18.995Z,5.13
2019-06-27T11:53:53.488Z,9.70
2019-06-27T11:56:24.684Z,10.13
2019-06-27T11:58:55.893Z,5.50
2019-06-27T12:01:27.141Z,6.03
2019-06-27T12:03:58.411Z,9.63
2019-06-27T12:06:29.757Z,5.40
2019-06-27T12:09:01.006Z,8.20
2019-06-27T12:11:32.338Z,8.93
2019-06-27T12:14:03.621Z,9.80
2019-06-27T12:16:34.874Z,9.63
2019-06-27T12:19:07.595Z,8.90
2019-06-27T12:21:41.172Z,6.57
2019-06-27T12:24:12.461Z,8.87
2019-06-27T12:26:43.655Z,5.77
2019-06-27T12:29:14.949Z,9.20
2019-06-27T12:31:46.272Z,9.43
2019-06-27T12:34:17.568Z,10.10
2019-06-27T12:36:48.746Z,9.83
2019-06-27T12:39:20.019Z,5.97
2019-06-27T12:41:51.284Z,6.33
2019-06-27T12:44:22.502Z,13.97
2019-06-27T12:46:53.768Z,5.67
2019-06-27T12:49:44.500Z,7.83
2019-06-27T12:51:59.539Z,8.37
2019-06-27T12:54:30.800Z,8.70
2019-06-27T12:57:02.096Z,6.17
2019-06-27T12:59:33.404Z,4.90
2019-06-27T13:02:04.625Z,7.07
2019-06-27T13:04:36.008Z,5.73
2019-06-27T13:07:07.439Z,5.47
2019-06-27T13:09:38.656Z,6.63
2019-06-27T13:12:10.012Z,5.10
2019-06-27T13:14:41.308Z,7.33
2019-06-27T13:17:12.671Z,5.80
2019-06-27T13:19:43.987Z,9.20
2019-06-27T13:22:15.286Z,6.83
2019-06-27T13:24:46.682Z,3.10
2019-06-27T13:27:18.008Z,3.60
2019-06-27T13:29:49.282Z,5.67
2019-06-27T13:32:20.557Z,6.23
2019-06-27T13:34:51.842Z,4.23
2019-06-27T13:37:23.119Z,7.30
2019-06-27T13:39:54.431Z,5.57
2019-06-27T13:42:25.657Z,7.47
2019-06-27T13:44:57.105Z,6.00
2019-06-27T13:47:28.363Z,4.43
2019-06-27T13:49:59.635Z,4.80
2019-06-27T13:52:30.820Z,7.90
2019-06-27T13:55:02.115Z,6.70
2019-06-27T13:57:33.489Z,7.53
2019-06-27T14:00:05.264Z,6.87
2019-06-27T14:02:36.457Z,5.10
2019-06-27T14:05:07.898Z,6.70
2019-06-27T14:07:39.280Z,4.87
2019-06-27T14:10:10.971Z,27.97
2019-06-27T14:12:44.724Z,4.53
2019-06-27T14:15:15.655Z,14.20
2019-06-27T14:17:46.949Z,4.13
2019-06-27T14:20:18.507Z,8.87
2019-06-27T14:22:49.791Z,7.47
2019-06-27T14:25:21.063Z,4.40
2019-06-27T14:27:52.273Z,4.33
2019-06-27T14:30:23.775Z,9.10
2019-06-27T14:32:55.057Z,4.17
2019-06-27T14:35:26.675Z,8.23
2019-06-27T14:37:57.929Z,6.07
2019-06-27T14:40:29.248Z,9.03
2019-06-27T14:43:03.222Z,5.30
2019-06-27T14:45:34.520Z,5.10
2019-06-27T14:48:05.777Z,4.10
2019-06-27T14:50:37.536Z,4.23
2019-06-27T14:53:08.705Z,4.83
2019-06-27T14:55:39.869Z,7.60
2019-06-27T14:58:11.141Z,7.33
2019-06-27T15:00:42.542Z,4.87
2019-06-27T15:03:13.890Z,5.80
2019-06-27T15:05:45.270Z,5.50
2019-06-27T15:08:16.454Z,5.73
2019-06-27T15:10:47.709Z,3.40
2019-06-27T15:13:19.102Z,5.50
2019-06-27T15:15:50.352Z,4.40
2019-06-27T15:18:21.730Z,5.17
2019-06-27T15:20:53.223Z,3.93
2019-06-27T15:23:24.491Z,3.73
2019-06-27T15:25:55.801Z,3.97
2019-06-27T15:28:27.028Z,7.73
2019-06-27T15:31:00.942Z,6.20
2019-06-27T15:33:41.297Z,6.40
2019-06-27T15:36:10.691Z,6.30
2019-06-27T15:38:41.934Z,4.83
2019-06-27T15:41:13.211Z,5.03
2019-06-27T15:43:44.545Z,3.60
2019-06-27T15:46:15.822Z,4.63
2019-06-27T15:48:47.158Z,3.37
2019-06-27T15:51:18.446Z,4.20
2019-06-27T15:53:49.779Z,2.90
2019-06-27T15:56:21.068Z,4.83
2019-06-27T15:58:52.363Z,4.60
2019-06-27T16:01:23.617Z,4.60
2019-06-27T16:03:54.912Z,3.63
2019-06-27T16:06:26.371Z,5.60
2019-06-27T16:08:57.669Z,4.40
2019-06-27T16:11:29.012Z,6.80
2019-06-27T16:14:00.270Z,6.23
2019-06-27T16:16:32.167Z,9.93
2019-06-27T16:19:08.256Z,7.53
2019-06-27T16:21:41.533Z,7.17
2019-06-27T16:28:05.743Z,7.97
2019-06-27T16:31:09.728Z,4.60
2019-06-27T16:33:41.047Z,5.87
2019-06-27T16:36:25.005Z,5.67
2019-06-27T16:38:45.413Z,5.63
2019-06-27T16:41:16.676Z,5.37
2019-06-27T16:43:47.939Z,5.10
2019-06-27T16:46:19.290Z,4.83
2019-06-27T16:48:50.685Z,7.43
2019-06-27T16:51:22.011Z,4.97
2019-06-27T16:53:53.279Z,5.43
2019-06-27T16:56:24.542Z,3.30
2019-06-27T16:58:58.261Z,4.63
2019-06-27T17:01:29.647Z,4.57
2019-06-27T17:04:02.233Z,6.33
2019-06-27T17:06:41.975Z,5.70
2019-06-27T17:09:08.149Z,3.70
2019-06-27T17:11:39.303Z,5.63
2019-06-27T17:14:10.549Z,4.93
2019-06-27T17:16:41.849Z,5.83
2019-06-27T17:19:13.211Z,7.57
2019-06-27T17:21:44.514Z,4.93
2019-06-27T17:24:37.087Z,5.37
2019-06-27T17:27:08.689Z,3.40
2019-06-27T17:29:40.056Z,8.50
2019-06-27T17:32:11.509Z,5.20
2019-06-27T17:34:42.940Z,4.37
2019-06-27T17:37:14.222Z,3.73
2019-06-27T17:39:45.511Z,4.13
2019-06-27T17:42:16.721Z,4.20
2019-06-27T17:44:48.019Z,6.23
2019-06-27T17:47:20.378Z,4.50
2019-06-27T17:49:51.792Z,5.67
2019-06-27T17:52:23.089Z,5.33
2019-06-27T17:54:56.841Z,5.90
2019-06-27T17:57:40.599Z,4.60
2019-06-27T18:00:12.243Z,6.07
2019-06-27T18:02:43.586Z,6.03
2019-06-27T18:05:18.147Z,3.33
2019-06-27T18:07:48.227Z,4.20
2019-06-27T18:10:20.688Z,4.30
2019-06-27T18:12:51.808Z,4.60
2019-06-27T18:15:23.415Z,3.63
2019-06-27T18:17:54.872Z,5.80
2019-06-27T18:20:26.067Z,6.50
2019-06-27T18:22:57.416Z,3.60
2019-06-27T18:25:28.831Z,6.07
2019-06-27T18:28:00.095Z,3.60
2019-06-27T18:30:31.545Z,5.40
2019-06-27T18:33:02.888Z,4.60
2019-06-27T18:35:35.394Z,5.97
2019-06-27T18:38:14.931Z,3.13
2019-06-27T18:40:46.364Z,5.40
2019-06-27T18:43:17.661Z,5.33
2019-06-27T18:45:48.937Z,8.70
2019-06-27T18:48:20.104Z,10.63
2019-06-27T18:50:51.550Z,6.20
2019-06-27T18:53:22.852Z,5.13
2019-06-27T18:55:55.801Z,5.83
2019-06-27T18:58:30.257Z,6.17
2019-06-27T19:01:03.286Z,10.63
2019-06-27T19:03:35.535Z,3.70
2019-06-27T19:06:06.889Z,9.30
2019-06-27T19:08:38.299Z,4.17
2019-06-27T19:11:09.551Z,5.67
2019-06-27T19:13:40.667Z,13.07
2019-06-27T19:16:11.873Z,5.07
2019-06-27T19:18:54.767Z,8.30
2019-06-27T19:21:56.681Z,8.03
2019-06-27T19:24:42.617Z,6.37
2019-06-27T19:27:13.880Z,5.43
2019-06-27T19:29:45.505Z,8.40
2019-06-27T19:32:16.738Z,4.40
2019-06-27T19:34:48.000Z,4.47
2019-06-27T19:37:19.156Z,4.73
2019-06-27T19:39:50.388Z,4.40
2019-06-27T19:42:21.691Z,3.63
2019-06-27T19:44:53.001Z,4.53
2019-06-27T19:47:24.229Z,2.67
2019-06-27T19:49:55.674Z,4.43
2019-06-27T19:52:26.903Z,3.00
2019-06-27T19:54:58.180Z,5.67
2019-06-27T19:57:29.422Z,7.60
2019-06-27T20:00:00.694Z,5.40
2019-06-27T20:02:36.079Z,3.33
2019-06-27T20:05:05.162Z,4.50
2019-06-27T20:07:36.566Z,3.70
2019-06-27T20:10:11.888Z,2.30
2019-06-27T20:12:42.648Z,5.00
2019-06-27T20:15:14.103Z,3.20
2019-06-27T20:17:45.351Z,5.17
2019-06-27T20:20:17.026Z,7.03
2019-06-27T20:22:48.400Z,3.17
2019-06-27T20:25:19.873Z,3.80
2019-06-27T20:27:51.185Z,3.83
2019-06-27T20:30:23.150Z,7.60
2019-06-27T20:32:54.705Z,7.60
2019-06-27T20:35:26.048Z,5.53
2019-06-27T20:37:58.406Z,8.13
2019-06-27T20:40:30.502Z,7.97
2019-06-27T20:43:03.429Z,6.20
2019-06-27T20:45:35.012Z,7.73
2019-06-27T20:48:06.318Z,5.53
2019-06-27T20:50:39.094Z,7.33
2019-06-27T20:53:10.417Z,7.13
2019-06-27T20:55:41.868Z,7.23
2019-06-27T20:58:16.608Z,10.43
2019-06-27T21:00:47.903Z,6.40
2019-06-27T21:03:29.033Z,8.50
2019-06-27T21:06:00.756Z,7.47
2019-06-27T21:08:32.215Z,7.00
2019-06-27T21:11:05.760Z,11.37
2019-06-27T21:13:41.616Z,6.60
2019-06-27T21:16:15.214Z,11.83
2019-06-27T21:18:48.359Z,6.50
2019-06-27T21:21:19.553Z,10.93
2019-06-27T21:23:50.772Z,16.13
2019-06-27T21:26:22.002Z,6.93
2019-06-27T21:28:53.450Z,10.47
2019-06-27T21:31:24.722Z,6.80
2019-06-27T21:33:56.437Z,5.27
2019-06-27T21:36:27.651Z,8.80
2019-06-27T21:39:07.704Z,15.83
2019-06-27T21:41:33.011Z,6.17
2019-06-27T21:44:04.306Z,6.60
2019-06-27T21:46:35.602Z,13.10
2019-06-27T21:49:06.861Z,9.90
2019-06-27T21:51:38.296Z,6.23
2019-06-27T21:54:09.618Z,9.87
2019-06-27T21:56:41.373Z,6.40
2019-06-27T21:59:12.652Z,9.67
2019-06-27T22:01:46.021Z,9.70
2019-06-27T22:04:19.598Z,7.33
2019-06-27T22:06:51.004Z,8.57
2019-06-27T22:09:25.096Z,7.00
2019-06-27T22:11:55.399Z,6.80
2019-06-27T22:14:26.601Z,12.60
2019-06-27T22:16:57.871Z,7.30
2019-06-27T22:19:29.167Z,7.47
2019-06-27T22:22:00.562Z,7.60
2019-06-27T22:24:32.102Z,7.97
2019-06-27T22:27:03.548Z,5.90
2019-06-27T22:29:34.902Z,6.97
2019-06-27T22:32:06.238Z,7.77
2019-06-27T22:34:37.600Z,6.80
2019-06-27T22:37:09.883Z,12.60
2019-06-27T22:39:58.633Z,7.83
2019-06-27T22:42:47.514Z,8.90
2019-06-27T22:45:36.778Z,8.93
2019-06-27T22:48:12.735Z,10.63
2019-06-27T22:50:59.709Z,8.20
2019-06-27T22:53:33.971Z,9.30
2019-06-27T22:56:05.531Z,9.73
2019-06-27T22:58:36.824Z,7.70
2019-06-27T23:01:09.281Z,9.17
2019-06-27T23:03:41.507Z,7.93
2019-06-27T23:06:13.928Z,8.23
2019-06-27T23:08:46.071Z,12.23
2019-06-27T23:11:17.433Z,8.23
2019-06-27T23:13:49.655Z,7.63
2019-06-27T23:16:21.851Z,7.87
2019-06-27T23:18:53.813Z,11.17
2019-06-27T23:21:26.288Z,9.00
2019-06-27T23:23:59.300Z,7.80
2019-06-27T23:26:31.736Z,14.60
2019-06-27T23:29:03.280Z,9.90
2019-06-27T23:31:34.741Z,9.40
2019-06-27T23:34:11.194Z,15.83
2019-06-27T23:36:53.042Z,12.57
2019-06-27T23:39:24.237Z,8.50
2019-06-27T23:41:55.787Z,11.50
2019-06-27T23:47:05.158Z,11.90
2019-06-27T23:49:36.440Z,9.73
2019-06-27T23:52:07.853Z,13.90
2019-06-27T23:54:39.127Z,10.33
2019-06-27T23:57:10.801Z,10.27
2019-06-27T23:59:42.042Z,12.37
